Latest Weather Observations for Darwin Airport

IDD60801

Issued at 6:41 am CST Monday 1 March 2021 (issued every 10 minutes, with the page automatically refreshed every 10 minutes)

About weather observations | Map of weather stations | Latest weather observations for NT | Other Formats
Station Details ID: 014015 Name: DARWIN AIRPORT Lat: -12.42 Lon: 130.89 Height: 30.4 m
Data from the previous 72 hours. | See also: Recent months at Darwin Airport
Date/Time
CST
Temp
°C
App
Temp
°C
Dew
Point
°C
Rel
Hum
%
Delta-T
°C
Wind Press
QNH
hPa
Press
MSL
hPa
Rain since
9am
mm
Dir  Spd
km/h
Gust
km/h
Spd
kts
Gust
kts
01/06:30am 26.1 32.4 24.8 92 0.9 CALM 0 0 0 0 1008.1 1007.8 0.0
01/06:00am 26.2 32.5 24.8 92 1.0 CALM 0 0 0 0 1007.9 1007.6 0.0
01/05:30am 26.1 31.9 23.9 88 1.5 CALM 0 0 0 0 1007.4 1007.1 0.0
01/05:00am 25.9 31.9 24.3 91 1.1 CALM 0 0 0 0 1007.4 1007.1 0.0
01/04:30am 25.9 31.3 23.9 89 1.4 N 2 4 1 2 1007.7 1007.4 0.0
01/04:00am 25.7 30.8 24.0 90 1.2 N 4 4 2 2 1007.7 1007.4 0.0
01/03:30am 25.7 31.5 24.0 90 1.2 CALM 0 0 0 0 1007.9 1007.6 0.0
01/03:00am 25.8 31.6 23.9 89 1.3 CALM 0 2 0 1 1008.2 1007.9 0.0
01/02:30am 25.8 30.7 23.6 88 1.5 SSE 4 6 2 3 1008.3 1008.0 0.0
01/02:00am 25.9 31.5 23.6 87 1.6 CALM 0 4 0 2 1008.6 1008.3 0.0
01/01:30am 25.9 31.7 24.0 89 1.3 CALM 0 2 0 1 1008.5 1008.2 0.0
01/01:00am 26.1 31.3 23.5 85 1.8 S 2 4 1 2 1008.8 1008.5 0.0
01/12:30am 25.9 31.6 23.7 88 1.5 CALM 0 4 0 2 1009.1 1008.8 0.0
01/12:00am 25.9 31.1 23.6 87 1.6 N 2 6 1 3 1009.1 1008.8 0.0
 
Date/Time
CST
Temp
°C
App
Temp
°C
Dew
Point
°C
Rel
Hum
%
Delta-T
°C
Wind Press
QNH
hPa
Press
MSL
hPa
Rain since
9am
mm
Dir  Spd
km/h
Gust
km/h
Spd
kts
Gust
kts
28/11:30pm 25.9 31.1 23.6 87 1.6 ESE 2 6 1 3 1009.0 1008.7 0.0
28/11:00pm 25.8 29.9 22.9 84 2.0 SSE 6 7 3 4 1009.3 1009.0 0.0
28/10:30pm 25.9 29.9 22.8 83 2.1 S 6 7 3 4 1009.0 1008.7 0.0
28/10:00pm 25.9 29.8 22.6 82 2.2 SSW 6 7 3 4 1008.6 1008.3 0.0
28/09:30pm 26.0 29.7 22.6 81 2.3 SW 7 9 4 5 1008.7 1008.4 0.0
28/09:00pm 25.9 30.3 22.8 83 2.1 W 4 6 2 3 1008.4 1008.1 0.0
28/08:30pm 26.0 29.1 22.1 79 2.6 W 9 13 5 7 1008.3 1008.0 0.0
28/08:00pm 26.2 29.1 23.1 83 2.1 W 13 20 7 11 1008.1 1007.8 0.0
28/07:30pm 26.8 28.8 23.0 79 2.6 WNW 17 24 9 13 1007.4 1007.1 0.0
28/07:15pm 26.8 30.2 23.4 81 2.3 NW 11 15 6 8 1007.0 1006.7 0.0
28/07:00pm 27.7 30.1 22.9 75 3.3 NW 15 20 8 11 1006.6 1006.3 0.0
28/06:51pm 27.6 30.9 22.6 74 3.4 WSW 9 15 5 8 1006.6 1006.3 0.0
28/06:30pm 26.5 29.8 22.5 78 2.7 WSW 9 17 5 9 1006.5 1006.2 0.0
28/06:00pm 27.1 27.8 21.2 70 3.9 SSW 19 35 10 19 1006.7 1006.4 0.0
28/05:30pm 29.8 32.3 25.3 77 3.2 WNW 22 30 12 16 1006.5 1006.2 0.0
28/05:00pm 30.2 32.7 25.3 75 3.5 WNW 22 30 12 16 1006.1 1005.8 0.0
28/04:30pm 30.8 32.8 24.5 69 4.4 WNW 22 30 12 16 1005.6 1005.3 0.0
28/04:00pm 31.5 33.4 25.0 68 4.6 NW 24 30 13 16 1005.5 1005.2 0.0
28/03:30pm 31.6 34.4 25.3 69 4.5 NW 20 24 11 13 1005.2 1004.9 0.0
28/03:00pm 31.9 34.6 24.8 66 5.0 NW 19 24 10 13 1005.9 1005.6 0.0
28/02:30pm 32.0 35.3 25.1 67 4.9 NW 17 24 9 13 1006.4 1006.1 0.0
28/02:00pm 31.5 35.2 25.1 69 4.5 WNW 15 19 8 10 1006.7 1006.4 0.0
28/01:30pm 31.3 34.8 25.5 71 4.1 NW 17 22 9 12 1007.3 1007.0 0.0
28/01:00pm 31.6 35.1 25.4 69 4.4 NW 17 20 9 11 1007.7 1007.4 0.0
28/12:30pm 31.8 34.9 24.2 64 5.3 WNW 15 19 8 10 1008.0 1007.7 0.0
28/12:00pm 31.5 35.5 25.0 68 4.6 WNW 13 17 7 9 1008.5 1008.2 0.0
28/11:30am 30.6 34.5 24.8 71 4.1 WNW 13 19 7 10 1008.8 1008.5 0.0
28/11:00am 30.9 34.9 25.1 71 4.1 WNW 13 22 7 12 1008.9 1008.6 0.0
28/10:30am 31.0 36.1 25.5 72 3.9 NW 9 13 5 7 1008.9 1008.6 0.0
28/10:00am 30.6 35.5 24.6 70 4.2 WNW 7 11 4 6 1009.1 1008.8 0.0
28/09:30am 29.9 35.3 25.2 76 3.3 N 6 9 3 5 1009.1 1008.8 0.0
28/09:00am 29.8 36.5 25.9 79 2.8 N 2 6 1 3 1008.9 1008.6 3.0
28/08:30am 28.5 34.9 25.5 84 2.1 N 2 6 1 3 1008.6 1008.3 3.0
28/08:00am 27.9 33.7 25.8 88 1.5 N 6 7 3 4 1008.3 1008.0 3.0
28/07:30am 27.1 33.4 26.0 94 0.8 ENE 4 6 2 3 1007.8 1007.5 3.0
28/07:00am 26.4 32.0 25.5 95 0.6 E 6 7 3 4 1007.5 1007.2 3.0
28/06:30am 26.2 32.1 25.3 95 0.6 SE 4 6 2 3 1007.3 1007.0 3.0
28/06:00am 26.3 33.0 25.4 95 0.6 CALM 0 0 0 0 1007.2 1006.9 3.0
28/05:30am 26.4 32.8 25.5 95 0.6 SW 2 4 1 2 1006.8 1006.5 3.0
28/05:00am 26.4 32.9 25.7 96 0.5 SSW 2 4 1 2 1006.5 1006.2 3.0
28/04:30am 26.5 33.3 25.6 95 0.6 CALM 0 0 0 0 1006.4 1006.1 3.0
28/04:00am 26.5 33.3 25.6 95 0.6 CALM 0 4 0 2 1006.5 1006.2 3.0
28/03:30am 26.7 32.8 25.7 94 0.7 WSW 4 6 2 3 1006.4 1006.1 3.0
28/03:00am 27.3 33.2 25.9 92 1.0 W 6 7 3 4 1006.5 1006.2 3.0
28/02:30am 27.8 33.6 25.8 89 1.4 WSW 6 7 3 4 1006.7 1006.4 3.0
28/02:00am 27.6 33.4 25.8 90 1.3 WSW 6 7 3 4 1006.8 1006.5 3.0
28/01:30am 27.8 33.2 25.4 87 1.7 W 7 11 4 6 1007.0 1006.7 3.0
28/01:00am 27.7 32.6 25.3 87 1.7 W 9 11 5 6 1007.1 1006.8 3.0
28/12:30am 27.8 33.0 25.1 85 1.9 W 7 11 4 6 1007.3 1007.0 3.0
28/12:00am 27.7 32.8 25.0 85 1.9 WNW 7 9 4 5 1007.4 1007.1 3.0
 
Date/Time
CST
Temp
°C
App
Temp
°C
Dew
Point
°C
Rel
Hum
%
Delta-T
°C
Wind Press
QNH
hPa
Press
MSL
hPa
Rain since
9am
mm
Dir  Spd
km/h
Gust
km/h
Spd
kts
Gust
kts
27/11:30pm 27.7 32.3 24.1 81 2.5 W 7 9 4 5 1007.4 1007.1 3.0
27/11:00pm 27.8 32.1 23.3 76 3.1 WNW 6 9 3 5 1007.5 1007.2 3.0
27/10:30pm 27.9 32.1 22.4 72 3.7 WNW 4 6 2 3 1007.3 1007.0 3.0
27/10:00pm 28.2 31.7 21.8 68 4.3 W 6 7 3 4 1006.9 1006.6 3.0
27/09:30pm 28.2 31.9 22.5 71 3.9 W 7 11 4 6 1006.6 1006.3 3.0
27/09:00pm 28.3 32.8 24.0 77 3.0 W 7 9 4 5 1006.2 1005.9 3.0
27/08:30pm 28.3 33.1 24.4 79 2.7 WNW 7 9 4 5 1005.6 1005.3 3.0
27/08:00pm 28.4 33.4 24.5 79 2.7 WNW 6 9 3 5 1005.2 1004.9 3.0
27/07:30pm 28.6 33.2 24.1 76 3.1 W 7 9 4 5 1005.0 1004.7 3.0
27/07:00pm 29.0 33.1 24.0 74 3.5 WNW 9 11 5 6 1004.7 1004.4 3.0
27/06:30pm 29.3 33.0 24.6 76 3.3 W 13 17 7 9 1004.5 1004.2 3.0
27/06:00pm 29.8 32.9 24.2 72 3.9 WNW 15 20 8 11 1004.3 1004.0 3.0
27/05:30pm 30.4 32.5 23.1 65 5.0 WNW 17 24 9 13 1004.1 1003.8 3.0
27/05:00pm 30.9 33.2 24.5 68 4.5 WNW 20 24 11 13 1003.9 1003.6 3.0
27/04:30pm 31.2 33.9 25.0 69 4.4 WNW 20 26 11 14 1004.0 1003.7 3.0
27/04:00pm 31.2 33.5 24.4 67 4.8 WNW 20 26 11 14 1004.2 1003.9 3.0
27/03:30pm 30.9 33.8 25.4 72 3.9 WNW 20 26 11 14 1004.2 1003.9 3.0
27/03:00pm 28.4 31.4 23.3 74 3.5 NW 13 19 7 10 1004.4 1004.1 3.0
27/02:49pm 31.0 33.4 24.3 67 4.7 NW 19 24 10 13 1004.8 1004.5 0.0
27/02:30pm 31.4 33.9 24.4 66 4.9 NW 19 24 10 13 1004.6 1004.3 0.0
27/02:00pm 31.4 34.8 24.6 67 4.8 NW 15 22 8 12 1004.9 1004.6 0.0
27/01:30pm 30.9 34.3 25.3 72 4.0 NW 17 24 9 13 1005.4 1005.1 0.0
27/01:00pm 32.3 35.0 23.5 59 6.1 NW 15 20 8 11 1006.0 1005.7 0.0
27/12:30pm 31.9 35.5 22.4 57 6.5 WNW 7 19 4 10 1006.4 1006.1 0.0
27/12:00pm 31.4 35.0 22.3 58 6.2 SSE 7 15 4 8 1006.4 1006.1 0.0
27/11:30am 30.9 34.9 23.7 65 5.0 SSW 9 15 5 8 1006.4 1006.1 0.0
27/11:00am 30.0 33.8 24.0 70 4.2 SSW 11 19 6 10 1006.7 1006.4 0.0
27/10:30am 29.5 33.4 23.6 70 4.1 SW 9 15 5 8 1006.9 1006.6 0.0
27/10:00am 29.3 34.2 23.7 72 3.9 WSW 4 9 2 5 1006.9 1006.6 0.0
27/09:30am 28.8 33.7 23.6 73 3.6 W 4 7 2 4 1007.0 1006.7 0.0
27/09:00am 28.5 34.3 23.9 76 3.2 CALM 0 0 0 0 1007.0 1006.7 0.0
27/08:30am 27.3 31.7 23.8 81 2.4 N 7 9 4 5 1006.8 1006.5 0.0
27/08:00am 26.5 31.2 23.9 85 1.8 NNW 6 7 3 4 1006.4 1006.1 0.0
27/07:30am 25.7 30.7 23.8 89 1.3 N 4 6 2 3 1006.0 1005.7 0.0
27/07:00am 25.1 29.5 23.5 91 1.1 N 6 7 3 4 1005.7 1005.4 0.0
27/06:30am 25.2 29.7 23.9 92 0.9 N 7 9 4 5 1005.8 1005.5 0.0
27/06:00am 25.3 29.6 23.7 91 1.1 N 7 9 4 5 1005.6 1005.3 0.0
27/05:30am 25.4 29.9 23.7 90 1.2 NE 6 7 3 4 1005.1 1004.8 0.0
27/05:00am 25.3 29.4 23.2 88 1.4 NNE 7 11 4 6 1005.1 1004.8 0.0
27/04:30am 25.4 29.1 23.2 88 1.5 NE 9 15 5 8 1005.1 1004.8 0.0
27/04:00am 25.8 29.1 23.2 85 1.8 NE 11 15 6 8 1004.8 1004.5 0.0
27/03:30am 26.2 29.0 23.0 82 2.2 ENE 13 19 7 10 1005.1 1004.8 0.0
27/03:00am 26.2 29.8 23.1 83 2.1 ENE 9 13 5 7 1005.5 1005.2 0.0
27/02:30am 26.2 30.2 23.1 83 2.1 ENE 7 9 4 5 1005.7 1005.4 0.0
27/02:00am 26.3 30.6 23.7 85 1.8 E 7 11 4 6 1005.8 1005.5 0.0
27/01:30am 26.2 29.7 24.2 89 1.4 E 13 17 7 9 1006.2 1005.9 0.0
27/01:00am 26.5 32.3 24.5 89 1.4 ESE 2 4 1 2 1006.1 1005.8 0.0
27/12:30am 27.1 30.7 23.8 82 2.3 ESE 11 15 6 8 1006.5 1006.2 0.0
27/12:00am 26.7 31.4 23.9 84 1.9 WSW 6 7 3 4 1006.4 1006.1 0.0
 
Date/Time
CST
Temp
°C
App
Temp
°C
Dew
Point
°C
Rel
Hum
%
Delta-T
°C
Wind Press
QNH
hPa
Press
MSL
hPa
Rain since
9am
mm
Dir  Spd
km/h
Gust
km/h
Spd
kts
Gust
kts
26/11:30pm 27.0 31.2 23.2 80 2.6 WSW 6 7 3 4 1006.5 1006.2 0.0
26/11:00pm 27.1 31.4 23.3 80 2.6 WSW 6 6 3 3 1006.4 1006.1 0.0
26/10:30pm 26.9 31.8 23.7 82 2.2 W 4 6 2 3 1006.3 1006.0 0.0
26/10:00pm 27.0 31.8 23.5 81 2.4 W 4 6 2 3 1005.9 1005.6 0.0
26/09:30pm 27.2 30.7 22.9 77 2.9 WSW 9 11 5 6 1005.5 1005.2 0.0
26/09:00pm 27.6 32.9 23.7 79 2.7 NE 2 11 1 6 1004.7 1004.4 0.0
26/08:30pm 27.8 32.9 23.4 77 3.0 SE 2 6 1 3 1005.0 1004.7 0.0
26/08:00pm 28.6 33.3 23.4 73 3.6 NNW 4 6 2 3 1005.1 1004.8 0.0
26/07:30pm 29.1 33.2 23.3 71 4.0 NW 7 9 4 5 1004.4 1004.1 0.0
26/07:00pm 29.4 32.7 22.5 66 4.7 NW 9 11 5 6 1004.0 1003.7 0.0
26/06:30pm 29.8 32.4 22.6 65 4.9 NW 13 17 7 9 1003.4 1003.1 0.0
26/06:00pm 30.3 33.0 23.4 66 4.8 NW 15 20 8 11 1003.0 1002.7 0.0
26/05:30pm 30.6 32.2 22.2 61 5.7 WNW 17 20 9 11 1002.8 1002.5 0.0
26/05:00pm 31.7 34.0 22.0 56 6.6 NW 13 19 7 10 1002.8 1002.5 0.0
26/04:30pm 31.8 34.6 21.5 54 7.0 NW 9 15 5 8 1002.8 1002.5 0.0
26/04:00pm 30.7 32.3 21.4 57 6.3 NW 15 17 8 9 1003.0 1002.7 0.0
26/03:30pm 31.5 33.1 21.4 55 6.8 WNW 15 19 8 10 1003.0 1002.7 0.0
26/03:00pm 32.2 34.4 21.9 54 7.0 NW 13 19 7 10 1003.2 1002.9 0.0
26/02:30pm 31.2 34.3 22.1 58 6.2 NNW 9 13 5 7 1003.2 1002.9 0.0
26/02:00pm 31.3 34.8 22.2 58 6.2 NW 7 13 4 7 1003.6 1003.3 0.0
26/01:30pm 31.7 33.8 19.0 47 8.3 NW 6 9 3 5 1004.2 1003.9 0.0
26/01:00pm 31.5 35.3 21.6 55 6.7 NNW 4 11 2 6 1004.9 1004.6 0.0
26/12:30pm 31.0 33.5 20.3 53 7.1 W 7 11 4 6 1005.4 1005.1 0.0
26/12:00pm 30.9 34.3 21.7 58 6.2 ESE 6 7 3 4 1006.0 1005.7 0.0
26/11:30am 29.2 33.7 21.5 63 5.2 CALM 0 2 0 1 1006.3 1006.0 0.0
26/11:00am 29.2 33.2 22.0 65 4.9 NE 4 9 2 5 1006.5 1006.2 0.0
26/10:30am 28.1 32.3 21.7 68 4.3 E 2 6 1 3 1006.7 1006.4 0.0
26/10:00am 26.9 30.6 21.5 72 3.6 SE 4 7 2 4 1006.6 1006.3 0.0
26/09:30am 26.0 29.2 21.2 75 3.2 SSW 6 9 3 5 1006.5 1006.2 0.0
26/09:00am 26.0 30.0 21.3 75 3.1 E 2 6 1 3 1006.2 1005.9 0.0
26/08:30am 25.2 28.1 21.1 78 2.7 SE 7 11 4 6 1006.3 1006.0 0.0
26/08:00am 25.2 27.9 21.3 79 2.6 SE 9 11 5 6 1005.9 1005.6 0.0
26/07:30am 25.1 28.2 21.5 80 2.4 SSE 7 9 4 5 1005.6 1005.3 0.0
26/07:00am 24.9 28.2 21.9 83 2.0 SSE 7 9 4 5 1005.1 1004.8 0.0

Other formats

Comma delimited format used in spreadsheet applications
http://www.bom.gov.au/fwo/IDD60801/IDD60801.94120.axf

JavaScript Object Notation format (JSON) in row-major order
http://www.bom.gov.au/fwo/IDD60801/IDD60801.94120.json

Data quality

Most of these data are generated automatically and are frequently updated. Quality checks on data are not normally performed. It is possible for incorrect values to appear. Refer to information at About Latest Weather Observations and please check the disclaimer before using these data.